Time;durP1;ratioP1;P1;durP2;ratioP2;P2;SDS_P1;SDS_P2;PMS_P1;PMS_P2;Temp;Humidity;BMP_temperature;BMP_pressure;BME280_temperature;BME280_humidity;BME280_pressure;Samples;Min_cycle;Max_cycle;Signal;HPM_P1;HPM_P2
2022/08/12 00:43:29;;;;;;;;;18.00;15.33;;;;;;;;5097682;27;45308;-82
2022/08/12 00:48:39;;;;;;;;;18.67;15.00;;;;;;;;5098047;27;45305;-85
2022/08/12 00:51:05;;;;;;;;;13.00;13.00;;;;;;;;5097644;27;45362;-85
2022/08/12 00:53:31;;;;;;;;;13.33;13.33;;;;;;;;5097816;27;45391;-86
2022/08/12 00:55:57;;;;;;;;;17.33;16.00;;;;;;;;5098033;27;45432;-84
2022/08/12 00:58:24;;;;;;;;;15.67;13.33;;;;;;;;5097852;27;45329;-86
2022/08/12 01:00:50;;;;;;;;;18.33;15.33;;;;;;;;5097590;27;46218;-85
2022/08/12 01:03:17;;;;;;;;;18.33;15.00;;;;;;;;5097326;27;45414;-85
2022/08/12 01:11:30;;;;;;;;;15.33;13.00;;;;;;;;5034535;28;45355;-86
2022/08/12 01:13:57;;;;;;;;;11.00;11.00;;;;;;;;5034559;28;45417;-83
2022/08/12 01:16:22;;;;;;;;;16.00;15.00;;;;;;;;5034534;28;45488;-85
2022/08/12 01:18:49;;;;;;;;;17.33;15.67;;;;;;;;5034876;28;45383;-84
2022/08/12 01:21:26;;;;;;;;;13.67;11.33;;;;;;;;5034394;28;46709;-84
2022/08/12 01:24:10;;;;;;;;;13.67;13.67;;;;;;;;5034281;28;45507;-85
2022/08/12 01:26:38;;;;;;;;;13.00;13.00;;;;;;;;5034582;28;45450;-84
2022/08/12 01:29:05;;;;;;;;;15.33;14.33;;;;;;;;5019917;28;45322;-84
2022/08/12 01:31:34;;;;;;;;;15.67;14.67;;;;;;;;5037687;28;45295;-84
2022/08/12 01:34:11;;;;;;;;;13.00;12.00;;;;;;;;5020854;28;45338;-85
2022/08/12 01:36:45;;;;;;;;;18.33;15.00;;;;;;;;5037770;28;45417;-85
2022/08/12 01:39:13;;;;;;;;;15.67;15.33;;;;;;;;5037916;28;45438;-85
2022/08/12 01:41:43;;;;;;;;;15.00;14.33;;;;;;;;5037334;28;46410;-83
2022/08/12 01:44:10;;;;;;;;;14.67;13.33;;;;;;;;5037329;28;45457;-85
2022/08/12 01:47:02;;;;;;;;;16.00;14.67;;;;;;;;5037835;28;45444;-84
2022/08/12 01:49:36;;;;;;;;;17.00;16.00;;;;;;;;5067787;27;45507;-83
2022/08/12 01:52:03;;;;;;;;;14.00;14.00;;;;;;;;5100357;27;46081;-83
2022/08/12 01:54:29;;;;;;;;;15.33;13.33;;;;;;;;5100252;27;45425;-84
2022/08/12 01:57:09;;;;;;;;;14.00;14.00;;;;;;;;5100534;27;45436;-85
2022/08/12 01:59:55;;;;;;;;;15.00;13.00;;;;;;;;5100827;27;45525;-85
2022/08/12 02:02:26;;;;;;;;;17.00;16.00;;;;;;;;5100004;27;46585;-84
2022/08/12 02:11:17;;;;;;;;;13.67;13.67;;;;;;;;5100556;27;45434;-83
2022/08/12 02:13:45;;;;;;;;;14.00;13.33;;;;;;;;5100142;27;45627;-84
2022/08/12 02:16:26;;;;;;;;;16.00;14.67;;;;;;;;5100184;27;45333;-84
2022/08/12 02:19:02;;;;;;;;;11.33;10.67;;;;;;;;5100137;27;45275;-83
2022/08/12 02:21:31;;;;;;;;;14.33;14.33;;;;;;;;5100100;27;45334;-84
2022/08/12 02:23:57;;;;;;;;;18.00;16.67;;;;;;;;5099597;27;46681;-84
2022/08/12 02:26:24;;;;;;;;;14.33;14.33;;;;;;;;5100091;27;45409;-86
2022/08/12 02:28:51;;;;;;;;;18.33;17.00;;;;;;;;5099956;27;45308;-84
2022/08/12 02:31:17;;;;;;;;;13.67;13.33;;;;;;;;5081812;27;45373;-85
2022/08/12 02:33:45;;;;;;;;;17.67;16.33;;;;;;;;5099390;27;45439;-86
2022/08/12 02:36:10;;;;;;;;;16.00;16.00;;;;;;;;5099713;27;45306;-84
2022/08/12 02:38:35;;;;;;;;;15.33;15.33;;;;;;;;5099907;27;45324;-84
2022/08/12 02:41:01;;;;;;;;;17.67;17.00;;;;;;;;5099759;27;45475;-86
2022/08/12 02:43:30;;;;;;;;;13.33;12.67;;;;;;;;5099425;27;46422;-84
2022/08/12 02:46:08;;;;;;;;;14.67;13.00;;;;;;;;5099449;27;45364;-85
2022/08/12 02:49:00;;;;;;;;;17.00;14.67;;;;;;;;5081174;27;45405;-85
2022/08/12 02:51:29;;;;;;;;;17.00;17.00;;;;;;;;5096316;27;45241;-84
2022/08/12 02:53:57;;;;;;;;;13.33;13.33;;;;;;;;5099255;27;46608;-84
2022/08/12 02:56:22;;;;;;;;;16.00;15.67;;;;;;;;5099207;27;45323;-84
2022/08/12 02:58:48;;;;;;;;;18.00;17.33;;;;;;;;5099738;27;45222;-85
2022/08/12 03:01:14;;;;;;;;;16.00;15.00;;;;;;;;5099604;27;45240;-84
2022/08/12 03:03:40;;;;;;;;;15.00;14.00;;;;;;;;5098888;27;46524;-83
2022/08/12 03:06:17;;;;;;;;;19.00;16.33;;;;;;;;5098987;27;45316;-84
2022/08/12 03:08:45;;;;;;;;;20.00;18.67;;;;;;;;5099430;27;45196;-84
2022/08/12 03:11:19;;;;;;;;;18.67;16.67;;;;;;;;5099435;27;45442;-84
2022/08/12 03:13:46;;;;;;;;;15.67;15.67;;;;;;;;5099137;27;46455;-83
2022/08/12 03:16:13;;;;;;;;;17.67;16.00;;;;;;;;5099013;27;45467;-85
2022/08/12 03:18:40;;;;;;;;;17.33;16.00;;;;;;;;5099088;27;45340;-83
2022/08/12 03:21:05;;;;;;;;;17.67;15.67;;;;;;;;5099360;27;45365;-83
2022/08/12 03:23:31;;;;;;;;;17.33;15.00;;;;;;;;5099120;27;46293;-83
2022/08/12 03:25:57;;;;;;;;;17.67;15.00;;;;;;;;5098973;27;45446;-84
2022/08/12 03:31:09;;;;;;;;;17.33;16.00;;;;;;;;5099392;27;45235;-84
2022/08/12 03:33:36;;;;;;;;;16.33;16.00;;;;;;;;5098452;27;46467;-84
2022/08/12 03:36:03;;;;;;;;;15.00;13.33;;;;;;;;5098635;27;45382;-83
2022/08/12 03:38:31;;;;;;;;;17.67;17.67;;;;;;;;5098849;27;45497;-85
2022/08/12 04:00:39;;;;;;;;;17.33;17.33;;;;;;;;5035645;28;45286;-84
2022/08/12 04:03:50;;;;;;;;;19.33;18.33;;;;;;;;5035570;28;45472;-83
2022/08/12 04:05:50;;;;;;;;;16.67;15.67;;;;;;;;5035602;28;46104;-83
2022/08/12 04:08:16;;;;;;;;;20.67;18.33;;;;;;;;5035135;28;45390;-81
2022/08/12 04:13:25;;;;;;;;;19.00;16.33;;;;;;;;5035591;28;45286;-82
2022/08/12 04:15:51;;;;;;;;;16.67;15.00;;;;;;;;5035105;28;45591;-83
2022/08/12 04:18:16;;;;;;;;;19.33;17.33;;;;;;;;5035214;28;45199;-82
2022/08/12 04:20:42;;;;;;;;;36.00;26.33;;;;;;;;5018230;28;45288;-83
2022/08/12 04:23:13;;;;;;;;;17.33;17.00;;;;;;;;5068774;27;45322;-83
2022/08/12 04:25:39;;;;;;;;;14.00;14.00;;;;;;;;5098122;27;46428;-83
2022/08/12 04:28:07;;;;;;;;;20.00;19.67;;;;;;;;5097910;27;45434;-81
2022/08/12 04:30:33;;;;;;;;;18.33;18.33;;;;;;;;5098178;27;45355;-84
2022/08/12 04:32:58;;;;;;;;;17.67;15.67;;;;;;;;5098121;27;45177;-84
2022/08/12 04:35:24;;;;;;;;;21.00;17.67;;;;;;;;5097950;27;45669;-84
2022/08/12 04:37:52;;;;;;;;;18.33;16.67;;;;;;;;5097896;27;45451;-84
2022/08/12 04:40:18;;;;;;;;;20.67;18.33;;;;;;;;5098081;27;45337;-82
2022/08/12 04:42:44;;;;;;;;;19.33;17.00;;;;;;;;5098206;27;45354;-85
2022/08/12 04:45:09;;;;;;;;;15.00;15.00;;;;;;;;5097681;27;47320;-83
2022/08/12 04:47:35;;;;;;;;;18.33;16.67;;;;;;;;5097764;27;45343;-84
2022/08/12 04:50:00;;;;;;;;;24.33;18.67;;;;;;;;5097862;27;45304;-84
2022/08/12 04:52:26;;;;;;;;;18.33;15.67;;;;;;;;5098244;27;45175;-84
2022/08/12 04:54:51;;;;;;;;;20.00;17.00;;;;;;;;5097697;27;46601;-84
2022/08/12 04:57:16;;;;;;;;;17.67;16.00;;;;;;;;5097739;27;45229;-84
2022/08/12 04:59:41;;;;;;;;;17.33;17.33;;;;;;;;5098021;27;45308;-84
2022/08/12 05:02:06;;;;;;;;;19.00;18.33;;;;;;;;5098400;27;45323;-83
2022/08/12 05:04:32;;;;;;;;;22.67;16.67;;;;;;;;5100921;27;47002;-83
2022/08/12 05:06:57;;;;;;;;;24.67;17.33;;;;;;;;5100911;27;45187;-83
2022/08/12 05:09:23;;;;;;;;;24.33;19.00;;;;;;;;5101295;27;45276;-83
2022/08/12 05:11:51;;;;;;;;;20.00;18.67;;;;;;;;5101486;27;45271;-83
2022/08/12 05:14:16;;;;;;;;;20.67;18.33;;;;;;;;5101088;27;47011;-84
2022/08/12 05:16:42;;;;;;;;;17.67;17.00;;;;;;;;5101033;27;45331;-83
2022/08/12 05:19:07;;;;;;;;;17.67;17.33;;;;;;;;5101042;27;45303;-84
2022/08/12 05:21:32;;;;;;;;;16.00;16.00;;;;;;;;5101243;27;45352;-84
2022/08/12 05:23:58;;;;;;;;;22.00;20.67;;;;;;;;5100245;27;46186;-83
2022/08/12 05:26:23;;;;;;;;;17.67;17.00;;;;;;;;5101014;27;45384;-83
2022/08/12 05:28:49;;;;;;;;;17.67;14.67;;;;;;;;5101030;27;45352;-83
2022/08/12 05:31:15;;;;;;;;;15.67;15.67;;;;;;;;5101152;27;45218;-83
2022/08/12 05:33:44;;;;;;;;;18.00;16.67;;;;;;;;5100418;27;45293;-83
2022/08/12 05:36:12;;;;;;;;;29.00;24.00;;;;;;;;5100713;27;45495;-84
2022/08/12 05:38:56;;;;;;;;;17.00;17.00;;;;;;;;5100782;27;45427;-84
2022/08/12 05:41:23;;;;;;;;;19.33;17.33;;;;;;;;5100836;27;45277;-84
2022/08/12 05:43:49;;;;;;;;;21.33;21.33;;;;;;;;5100455;27;47211;-84
2022/08/12 05:46:14;;;;;;;;;22.67;18.67;;;;;;;;5100341;27;45586;-83
2022/08/12 05:48:40;;;;;;;;;20.00;20.00;;;;;;;;5100928;27;45312;-83
2022/08/12 05:51:06;;;;;;;;;19.33;17.00;;;;;;;;5100665;27;45523;-83
2022/08/12 05:53:31;;;;;;;;;20.00;18.67;;;;;;;;5100382;27;47073;-81
2022/08/12 05:55:56;;;;;;;;;19.33;18.67;;;;;;;;5100736;27;45424;-82
2022/08/12 05:58:21;;;;;;;;;20.00;19.33;;;;;;;;5100404;27;45147;-83
2022/08/12 06:00:47;;;;;;;;;20.33;18.33;;;;;;;;5100662;27;45520;-82
2022/08/12 06:03:15;;;;;;;;;21.33;18.33;;;;;;;;5100275;27;45605;-83
2022/08/12 06:05:43;;;;;;;;;20.00;18.67;;;;;;;;5099935;27;45402;-81
2022/08/12 06:08:08;;;;;;;;;19.00;18.33;;;;;;;;5100148;27;45462;-84
2022/08/12 06:10:34;;;;;;;;;21.67;20.33;;;;;;;;5100385;27;45301;-85
2022/08/12 06:13:01;;;;;;;;;19.67;18.00;;;;;;;;5100196;27;45456;-83
2022/08/12 06:15:26;;;;;;;;;18.33;18.00;;;;;;;;5099577;27;45226;-83
2022/08/12 06:17:52;;;;;;;;;18.67;17.67;;;;;;;;5099964;27;45256;-83
2022/08/12 06:20:17;;;;;;;;;22.67;20.67;;;;;;;;5100275;27;45597;-84
2022/08/12 06:22:43;;;;;;;;;18.67;14.33;;;;;;;;5100101;27;45277;-84
2022/08/12 06:25:08;;;;;;;;;16.00;13.67;;;;;;;;5099909;27;45226;-83
2022/08/12 06:27:41;;;;;;;;;24.67;18.67;;;;;;;;5100046;27;45310;-84
2022/08/12 06:30:07;;;;;;;;;21.00;17.67;;;;;;;;5100408;27;45386;-82
2022/08/12 06:32:32;;;;;;;;;20.00;19.00;;;;;;;;5099994;27;45377;-83
2022/08/12 06:34:58;;;;;;;;;18.67;18.33;;;;;;;;5099690;27;45294;-83
2022/08/12 06:37:23;;;;;;;;;20.33;19.67;;;;;;;;5100216;27;45453;-83
2022/08/12 06:39:48;;;;;;;;;21.33;17.00;;;;;;;;5100268;27;45439;-83
2022/08/12 06:44:58;;;;;;;;;21.67;19.33;;;;;;;;5099449;27;45302;-83
2022/08/12 06:47:23;;;;;;;;;20.33;20.33;;;;;;;;5099852;27;45415;-83
2022/08/12 06:49:48;;;;;;;;;22.33;18.33;;;;;;;;5099843;27;45198;-83
2022/08/12 06:52:14;;;;;;;;;25.00;22.33;;;;;;;;5099535;27;46227;-84
2022/08/12 06:54:41;;;;;;;;;23.50;21.00;;;;;;;;5099571;27;45326;-83
2022/08/12 06:57:06;;;;;;;;;21.00;18.00;;;;;;;;5099554;27;45298;-85
2022/08/12 06:59:34;;;;;;;;;22.33;18.00;;;;;;;;5099765;27;45381;-84
2022/08/12 07:01:59;;;;;;;;;20.67;17.33;;;;;;;;5099357;27;45652;-84
2022/08/12 07:04:24;;;;;;;;;18.67;18.00;;;;;;;;5099016;27;45266;-84
2022/08/12 07:06:50;;;;;;;;;26.67;26.67;;;;;;;;5099550;27;45272;-79
2022/08/12 07:09:16;;;;;;;;;18.33;16.33;;;;;;;;5099792;27;45304;-85
2022/08/12 07:11:43;;;;;;;;;21.00;19.67;;;;;;;;5099131;27;46677;-83
2022/08/12 07:14:08;;;;;;;;;23.33;20.00;;;;;;;;5099211;27;45397;-83
2022/08/12 07:16:52;;;;;;;;;19.67;18.33;;;;;;;;5099498;27;45434;-83
2022/08/12 07:19:18;;;;;;;;;24.00;23.33;;;;;;;;5099601;27;45213;-79
2022/08/12 07:21:43;;;;;;;;;18.33;17.00;;;;;;;;5098944;27;46333;-81
2022/08/12 07:24:09;;;;;;;;;15.00;15.00;;;;;;;;5099044;27;45952;-82
2022/08/12 07:26:40;;;;;;;;;25.00;19.33;;;;;;;;5098359;27;45316;-83
2022/08/12 07:29:05;;;;;;;;;19.00;18.00;;;;;;;;5099538;27;45570;-83
2022/08/12 07:31:30;;;;;;;;;18.67;18.33;;;;;;;;5098775;27;46437;-82
2022/08/12 07:33:58;;;;;;;;;15.00;15.00;;;;;;;;5098909;27;45320;-82
2022/08/12 07:36:24;;;;;;;;;19.00;17.00;;;;;;;;5098969;27;45262;-83
2022/08/12 07:38:50;;;;;;;;;25.00;23.00;;;;;;;;5099188;27;45361;-83
2022/08/12 07:41:27;;;;;;;;;20.33;19.33;;;;;;;;5099532;27;46064;-83
2022/08/12 07:43:55;;;;;;;;;19.33;16.67;;;;;;;;5099380;27;45368;-84
2022/08/12 07:46:22;;;;;;;;;19.00;18.67;;;;;;;;5099238;27;45206;-84
2022/08/12 07:48:49;;;;;;;;;20.00;19.33;;;;;;;;5098984;27;45576;-83
2022/08/12 07:51:15;;;;;;;;;18.00;16.33;;;;;;;;5099081;27;45510;-84
2022/08/12 07:53:40;;;;;;;;;23.67;21.00;;;;;;;;5099111;27;45328;-83
2022/08/12 07:56:08;;;;;;;;;18.00;16.00;;;;;;;;5099101;27;45505;-84
2022/08/12 07:58:34;;;;;;;;;18.33;16.00;;;;;;;;5081221;27;45442;-84
2022/08/12 08:01:00;;;;;;;;;21.33;18.00;;;;;;;;5098725;27;46323;-85
2022/08/12 08:03:26;;;;;;;;;19.67;18.00;;;;;;;;5098672;27;45160;-82
2022/08/12 08:05:51;;;;;;;;;26.33;22.00;;;;;;;;5098635;27;45412;-83
2022/08/12 08:08:18;;;;;;;;;16.33;15.67;;;;;;;;5078631;28;45499;-85
2022/08/12 08:10:43;;;;;;;;;15.67;15.00;;;;;;;;5077998;28;47126;-84
2022/08/12 08:13:10;;;;;;;;;20.67;17.00;;;;;;;;5078105;27;45229;-82
2022/08/12 08:15:38;;;;;;;;;19.00;16.00;;;;;;;;5078412;28;45266;-84
2022/08/12 08:18:04;;;;;;;;;15.33;15.00;;;;;;;;5080350;27;45420;-82
2022/08/12 08:20:32;;;;;;;;;20.33;18.33;;;;;;;;5078917;28;45325;-85
2022/08/12 08:22:59;;;;;;;;;20.33;17.00;;;;;;;;5059552;28;45358;-83
2022/08/12 08:25:31;;;;;;;;;18.00;17.00;;;;;;;;5079108;28;45429;-84
2022/08/12 08:28:00;;;;;;;;;16.67;15.67;;;;;;;;5078541;28;45320;-85
2022/08/12 08:30:27;;;;;;;;;20.00;18.67;;;;;;;;5079546;28;45702;-85
2022/08/12 08:32:52;;;;;;;;;16.67;16.67;;;;;;;;5077984;28;45266;-83
2022/08/12 08:35:18;;;;;;;;;16.67;14.67;;;;;;;;5078525;28;45380;-84
2022/08/12 08:37:45;;;;;;;;;15.00;13.33;;;;;;;;5081665;28;45397;-83
2022/08/12 08:42:54;;;;;;;;;17.00;16.00;;;;;;;;5081746;28;45265;-85
2022/08/12 08:45:19;;;;;;;;;20.00;15.67;;;;;;;;5081343;28;45322;-84
2022/08/12 08:47:45;;;;;;;;;18.33;16.00;;;;;;;;5081835;28;45196;-83
2022/08/12 08:50:13;;;;;;;;;17.67;14.33;;;;;;;;5081715;28;46707;-82
2022/08/12 08:52:39;;;;;;;;;15.00;15.00;;;;;;;;5082281;28;45360;-86
2022/08/12 08:55:04;;;;;;;;;17.33;15.00;;;;;;;;5081948;28;45547;-84
2022/08/12 08:57:29;;;;;;;;;18.00;16.67;;;;;;;;5082208;28;45325;-83
2022/08/12 08:59:54;;;;;;;;;19.00;16.67;;;;;;;;5081728;28;46506;-82
2022/08/12 09:02:20;;;;;;;;;19.67;17.00;;;;;;;;5082243;28;45383;-83
2022/08/12 09:04:45;;;;;;;;;14.33;13.33;;;;;;;;5082286;28;45289;-82
2022/08/12 09:07:11;;;;;;;;;17.67;17.00;;;;;;;;5092707;27;45367;-84
2022/08/12 09:09:36;;;;;;;;;14.00;14.00;;;;;;;;5102799;27;45404;-85
2022/08/12 09:14:47;;;;;;;;;18.33;15.00;;;;;;;;5101889;27;45287;-84
2022/08/12 09:17:13;;;;;;;;;17.33;17.33;;;;;;;;5102023;27;45253;-86
2022/08/12 09:19:39;;;;;;;;;17.00;17.00;;;;;;;;5101668;27;46421;-83
2022/08/12 09:22:07;;;;;;;;;16.67;16.67;;;;;;;;5100868;27;45474;-86
2022/08/12 09:24:33;;;;;;;;;17.33;15.67;;;;;;;;5101475;27;45339;-82
2022/08/12 09:26:58;;;;;;;;;17.00;14.00;;;;;;;;5101535;27;45218;-82
2022/08/12 09:29:23;;;;;;;;;15.67;13.67;;;;;;;;5101910;27;46127;-81
2022/08/12 09:31:51;;;;;;;;;14.00;14.00;;;;;;;;5101447;27;45185;-83
2022/08/12 09:34:17;;;;;;;;;14.00;14.00;;;;;;;;5101432;27;45396;-82
2022/08/12 09:36:42;;;;;;;;;13.33;13.33;;;;;;;;5101029;27;45391;-85
2022/08/12 09:39:08;;;;;;;;;16.67;15.00;;;;;;;;5101205;27;47108;-82
2022/08/12 09:41:37;;;;;;;;;14.67;13.67;;;;;;;;5101642;27;45607;-85
2022/08/12 09:46:46;;;;;;;;;14.67;14.33;;;;;;;;5102293;27;45252;-86
2022/08/12 09:49:11;;;;;;;;;14.33;14.33;;;;;;;;5099547;27;45343;-85
2022/08/12 09:51:36;;;;;;;;;11.00;10.00;;;;;;;;5100777;27;45344;-85
2022/08/12 09:54:01;;;;;;;;;15.33;15.33;;;;;;;;5100844;27;45415;-84
2022/08/12 09:56:30;;;;;;;;;16.00;15.00;;;;;;;;5100886;27;45555;-83
2022/08/12 09:58:56;;;;;;;;;14.00;12.00;;;;;;;;5100765;27;47476;-78
2022/08/12 10:01:22;;;;;;;;;12.67;12.67;;;;;;;;5100728;27;45374;-86
2022/08/12 10:03:48;;;;;;;;;13.00;13.00;;;;;;;;5100588;27;45316;-82
2022/08/12 10:06:13;;;;;;;;;13.25;11.75;;;;;;;;5100371;27;45420;-80
2022/08/12 10:08:38;;;;;;;;;13.75;11.50;;;;;;;;5100325;27;45495;-84
2022/08/12 10:13:51;;;;;;;;;12.25;12.25;;;;;;;;5100310;27;45291;-87
2022/08/12 10:16:16;;;;;;;;;11.00;11.00;;;;;;;;5100399;27;45265;-82
2022/08/12 10:18:43;;;;;;;;;12.25;11.25;;;;;;;;5099569;27;46367;-78
2022/08/12 10:21:10;;;;;;;;;6.50;6.50;;;;;;;;5100239;27;45332;-84
2022/08/12 10:23:36;;;;;;;;;11.75;11.75;;;;;;;;5099865;27;45318;-82
2022/08/12 10:31:30;;;;;;;;;11.00;10.50;;;;;;;;5100109;27;45374;-80
2022/08/12 10:33:55;;;;;;;;;13.00;13.00;;;;;;;;5100015;27;45459;-85
2022/08/12 10:36:20;;;;;;;;;11.25;11.25;;;;;;;;5100599;27;45276;-84
2022/08/12 10:38:46;;;;;;;;;12.25;12.25;;;;;;;;5099857;27;46974;-86
2022/08/12 10:43:55;;;;;;;;;12.50;12.00;;;;;;;;5099826;27;45300;-84
2022/08/12 10:46:20;;;;;;;;;12.25;11.00;;;;;;;;5100329;27;45463;-88
2022/08/12 10:48:46;;;;;;;;;14.00;13.50;;;;;;;;5099920;27;46524;-83
2022/08/12 10:51:13;;;;;;;;;13.75;13.75;;;;;;;;5100124;27;45528;-85
2022/08/12 10:53:39;;;;;;;;;10.50;10.50;;;;;;;;5099817;27;45444;-80
2022/08/12 10:56:06;;;;;;;;;13.00;12.00;;;;;;;;5099847;27;45248;-85
2022/08/12 10:58:35;;;;;;;;;13.00;13.00;;;;;;;;5099575;27;46240;-78
2022/08/12 11:01:04;;;;;;;;;11.75;11.00;;;;;;;;5099366;27;45442;-87
2022/08/12 11:03:35;;;;;;;;;10.75;10.75;;;;;;;;5098620;27;45474;-85
2022/08/12 11:06:01;;;;;;;;;13.25;13.25;;;;;;;;5099693;27;45516;-83
2022/08/12 11:08:29;;;;;;;;;11.50;11.50;;;;;;;;5099561;27;45665;-78
2022/08/12 11:10:54;;;;;;;;;11.50;10.75;;;;;;;;5099923;27;45415;-83
2022/08/12 11:13:19;;;;;;;;;10.50;10.00;;;;;;;;5099617;27;45327;-83
2022/08/12 11:15:45;;;;;;;;;11.00;11.00;;;;;;;;5099716;27;45252;-79
2022/08/12 11:18:10;;;;;;;;;12.75;12.75;;;;;;;;5099710;27;46536;-83
2022/08/12 11:20:36;;;;;;;;;9.50;9.50;;;;;;;;5099561;27;45283;-83
2022/08/12 11:23:02;;;;;;;;;13.25;11.50;;;;;;;;5081439;27;45305;-79
2022/08/12 11:25:27;;;;;;;;;13.75;13.75;;;;;;;;5099762;27;45200;-85
2022/08/12 11:27:52;;;;;;;;;12.00;11.25;;;;;;;;5099734;27;45386;-83
2022/08/12 11:30:17;;;;;;;;;11.75;11.75;;;;;;;;5099523;27;45376;-84
2022/08/12 11:32:42;;;;;;;;;10.50;10.50;;;;;;;;5099697;27;45314;-79
2022/08/12 11:35:08;;;;;;;;;12.75;11.75;;;;;;;;5099652;27;45531;-82
2022/08/12 11:37:36;;;;;;;;;13.50;13.25;;;;;;;;5099092;27;45841;-83
2022/08/12 11:40:01;;;;;;;;;14.00;11.25;;;;;;;;5099184;27;45325;-84
2022/08/12 11:42:27;;;;;;;;;13.50;12.75;;;;;;;;5099454;27;45455;-79
2022/08/12 11:44:52;;;;;;;;;11.00;11.00;;;;;;;;5099348;27;45340;-82
2022/08/12 11:47:17;;;;;;;;;14.75;13.25;;;;;;;;5099173;27;45501;-80
2022/08/12 11:49:42;;;;;;;;;14.00;12.25;;;;;;;;5098953;27;45330;-84
2022/08/12 11:52:07;;;;;;;;;12.25;12.25;;;;;;;;5098687;27;45405;-81
2022/08/12 11:54:33;;;;;;;;;14.50;13.50;;;;;;;;5099105;27;45398;-79
2022/08/12 11:56:58;;;;;;;;;12.75;12.75;;;;;;;;5098608;27;45473;-80
2022/08/12 11:59:24;;;;;;;;;11.25;11.25;;;;;;;;5098668;27;45308;-87
2022/08/12 12:01:49;;;;;;;;;13.25;11.00;;;;;;;;5098948;27;45338;-78
2022/08/12 12:04:14;;;;;;;;;13.00;13.00;;;;;;;;5098941;27;45272;-81
2022/08/12 12:06:40;;;;;;;;;12.50;11.50;;;;;;;;5098182;27;46273;-85
2022/08/12 12:09:05;;;;;;;;;10.00;9.00;;;;;;;;5098404;27;45151;-76
2022/08/12 12:11:30;;;;;;;;;12.00;11.00;;;;;;;;5098477;27;45302;-80
2022/08/12 12:13:55;;;;;;;;;12.00;12.00;;;;;;;;5098277;27;45433;-76
2022/08/12 12:16:20;;;;;;;;;13.67;13.67;;;;;;;;5098403;27;46506;-78
2022/08/12 12:18:46;;;;;;;;;13.50;12.25;;;;;;;;5098318;27;45439;-83
2022/08/12 12:21:11;;;;;;;;;16.00;13.00;;;;;;;;5098398;27;45282;-83
2022/08/12 12:23:36;;;;;;;;;10.67;10.67;;;;;;;;5098720;27;45487;-80
2022/08/12 12:26:03;;;;;;;;;13.50;13.00;;;;;;;;5098041;27;46242;-82
2022/08/12 12:28:28;;;;;;;;;14.25;14.00;;;;;;;;5098235;27;45275;-82
2022/08/12 12:30:54;;;;;;;;;11.67;11.67;;;;;;;;5098333;27;45281;-83
2022/08/12 12:33:22;;;;;;;;;14.00;14.00;;;;;;;;5098478;27;45443;-78
2022/08/12 12:35:47;;;;;;;;;11.50;11.50;;;;;;;;5098273;27;46526;-82
2022/08/12 12:38:13;;;;;;;;;14.00;13.00;;;;;;;;5097781;27;45398;-76
2022/08/12 12:40:41;;;;;;;;;13.00;13.00;;;;;;;;5098337;27;45509;-84
2022/08/12 12:43:07;;;;;;;;;12.67;12.67;;;;;;;;5098359;27;45178;-85
2022/08/12 12:45:33;;;;;;;;;11.67;11.00;;;;;;;;5097708;27;46488;-82
2022/08/12 12:48:00;;;;;;;;;14.00;14.00;;;;;;;;5098157;27;45253;-82
2022/08/12 12:50:28;;;;;;;;;9.67;9.33;;;;;;;;5098287;27;45392;-84
2022/08/12 12:52:54;;;;;;;;;10.67;10.33;;;;;;;;5098108;27;45371;-82
2022/08/12 12:55:19;;;;;;;;;12.33;11.00;;;;;;;;5097915;27;46097;-84
2022/08/12 12:57:45;;;;;;;;;12.00;12.00;;;;;;;;5097791;27;45375;-78
2022/08/12 13:00:14;;;;;;;;;12.67;11.00;;;;;;;;5098073;27;45324;-77
2022/08/12 13:02:40;;;;;;;;;12.67;12.00;;;;;;;;5098211;27;45438;-85
2022/08/12 13:05:06;;;;;;;;;18.00;14.33;;;;;;;;5097652;27;46088;-84
2022/08/12 13:07:36;;;;;;;;;10.67;9.67;;;;;;;;5097250;27;45435;-85
2022/08/12 13:10:02;;;;;;;;;14.00;14.00;;;;;;;;5097799;27;45181;-85
2022/08/12 13:12:27;;;;;;;;;13.67;11.67;;;;;;;;5097969;27;45313;-79
2022/08/12 13:14:53;;;;;;;;;11.33;11.33;;;;;;;;5097526;27;45262;-85
2022/08/12 13:17:20;;;;;;;;;11.33;11.33;;;;;;;;5097734;27;45419;-86
2022/08/12 13:19:45;;;;;;;;;12.00;11.33;;;;;;;;5098184;27;45321;-79
2022/08/12 13:22:19;;;;;;;;;10.00;10.00;;;;;;;;5097616;27;45416;-81
2022/08/12 13:24:49;;;;;;;;;14.67;13.00;;;;;;;;5100078;27;46477;-83
2022/08/12 13:27:15;;;;;;;;;13.33;11.67;;;;;;;;5100931;27;45326;-84
2022/08/12 13:29:40;;;;;;;;;10.33;10.33;;;;;;;;5100992;27;45381;-84
2022/08/12 13:32:05;;;;;;;;;13.00;13.00;;;;;;;;5101423;27;45253;-82
2022/08/12 13:34:35;;;;;;;;;13.25;13.25;;;;;;;;5082335;27;46523;-83
2022/08/12 13:37:01;;;;;;;;;17.00;13.00;;;;;;;;5101122;27;45345;-85
2022/08/12 13:39:28;;;;;;;;;12.33;11.33;;;;;;;;5101047;27;45297;-85
2022/08/12 13:41:54;;;;;;;;;10.33;10.33;;;;;;;;5101180;27;45329;-89
2022/08/12 13:44:19;;;;;;;;;13.33;12.00;;;;;;;;5100489;27;46236;-82
2022/08/12 13:46:44;;;;;;;;;11.33;11.33;;;;;;;;5101008;27;45433;-81
2022/08/12 13:49:12;;;;;;;;;10.33;10.33;;;;;;;;5101122;27;45358;-83
2022/08/12 13:51:41;;;;;;;;;10.67;10.67;;;;;;;;5101004;27;45371;-78
2022/08/12 13:54:07;;;;;;;;;8.33;8.33;;;;;;;;5100379;27;46136;-84
2022/08/12 13:56:33;;;;;;;;;10.67;10.33;;;;;;;;5100899;27;45313;-79
2022/08/12 13:59:08;;;;;;;;;11.00;11.00;;;;;;;;5100659;27;45363;-81
2022/08/12 14:01:34;;;;;;;;;10.67;9.67;;;;;;;;5100761;27;45357;-84
2022/08/12 14:04:03;;;;;;;;;12.33;11.00;;;;;;;;5100164;27;47309;-83
2022/08/12 14:06:28;;;;;;;;;11.67;10.67;;;;;;;;5100252;27;45377;-85
2022/08/12 14:08:54;;;;;;;;;12.00;10.33;;;;;;;;5100327;27;45364;-82
2022/08/12 14:11:19;;;;;;;;;14.33;12.00;;;;;;;;5100798;27;45385;-81
2022/08/12 14:13:46;;;;;;;;;11.00;11.00;;;;;;;;5100328;27;45981;-87
2022/08/12 14:16:12;;;;;;;;;14.33;11.33;;;;;;;;5100490;27;45408;-80
2022/08/12 14:18:38;;;;;;;;;10.67;10.67;;;;;;;;5100409;27;45309;-85
2022/08/12 14:21:04;;;;;;;;;14.00;11.00;;;;;;;;5100957;27;45368;-86
2022/08/12 14:23:32;;;;;;;;;15.00;12.67;;;;;;;;5100091;27;45543;-85
2022/08/12 14:25:59;;;;;;;;;12.33;11.00;;;;;;;;5100182;27;45230;-85
2022/08/12 14:28:25;;;;;;;;;9.67;9.67;;;;;;;;5100354;27;45550;-80
2022/08/12 14:30:53;;;;;;;;;14.67;12.33;;;;;;;;5100415;27;45393;-85
2022/08/12 14:33:22;;;;;;;;;10.00;10.00;;;;;;;;5100324;27;45506;-83
2022/08/12 14:35:48;;;;;;;;;13.67;11.33;;;;;;;;5099250;27;45480;-83
2022/08/12 14:38:19;;;;;;;;;9.67;9.67;;;;;;;;5100316;27;45364;-80
2022/08/12 14:40:44;;;;;;;;;11.00;10.33;;;;;;;;5100342;27;45274;-85
2022/08/12 14:43:09;;;;;;;;;8.00;8.00;;;;;;;;5099862;27;46205;-80
2022/08/12 14:45:38;;;;;;;;;11.67;10.00;;;;;;;;5099750;27;45455;-81
2022/08/12 14:48:03;;;;;;;;;12.33;10.00;;;;;;;;5100150;27;45430;-83
2022/08/12 14:50:28;;;;;;;;;11.00;11.00;;;;;;;;5099877;27;45206;-85
2022/08/12 14:52:54;;;;;;;;;13.33;10.67;;;;;;;;5099815;27;45447;-79
2022/08/12 14:55:19;;;;;;;;;9.00;9.00;;;;;;;;5099651;27;45396;-83
2022/08/12 14:57:54;;;;;;;;;13.00;10.67;;;;;;;;5099830;27;45280;-87
2022/08/12 15:03:07;;;;;;;;;11.67;9.67;;;;;;;;5099572;27;45447;-80
2022/08/12 15:05:36;;;;;;;;;12.00;11.67;;;;;;;;5080764;27;45462;-80
2022/08/12 15:08:12;;;;;;;;;10.00;10.00;;;;;;;;5099256;27;45346;-85
2022/08/12 15:10:42;;;;;;;;;11.33;11.33;;;;;;;;5099768;27;45225;-83
2022/08/12 15:13:08;;;;;;;;;7.33;5.67;;;;;;;;5099305;27;46124;-84
2022/08/12 15:15:37;;;;;;;;;8.33;8.33;;;;;;;;5099523;27;45445;-86
2022/08/12 15:18:02;;;;;;;;;10.00;10.00;;;;;;;;5099472;27;45254;-81
2022/08/12 15:20:28;;;;;;;;;10.67;9.00;;;;;;;;5099476;27;45435;-79
2022/08/12 15:22:54;;;;;;;;;10.67;9.00;;;;;;;;5099191;27;46259;-82
2022/08/12 15:25:19;;;;;;;;;9.67;9.67;;;;;;;;5099372;27;45169;-84
2022/08/12 15:27:48;;;;;;;;;10.33;9.00;;;;;;;;5099324;27;45228;-85
2022/08/12 15:30:15;;;;;;;;;10.00;10.00;;;;;;;;5099523;27;45438;-79
2022/08/12 15:32:40;;;;;;;;;11.33;9.67;;;;;;;;5097981;27;46586;-78
2022/08/12 15:35:05;;;;;;;;;10.33;10.33;;;;;;;;5098881;27;45245;-81
2022/08/12 15:37:31;;;;;;;;;9.00;9.00;;;;;;;;5099056;27;45418;-82
2022/08/12 15:39:56;;;;;;;;;9.00;9.00;;;;;;;;5099486;27;45351;-86
2022/08/12 15:42:23;;;;;;;;;10.00;10.00;;;;;;;;5098854;27;45547;-85
2022/08/12 15:44:48;;;;;;;;;9.67;9.67;;;;;;;;5098689;27;45470;-85
2022/08/12 15:47:14;;;;;;;;;11.33;9.00;;;;;;;;5097763;27;45547;-85
2022/08/12 15:49:40;;;;;;;;;12.33;11.00;;;;;;;;5099045;27;45423;-85
2022/08/12 15:52:05;;;;;;;;;6.33;6.33;;;;;;;;5098769;27;47179;-83
2022/08/12 15:54:30;;;;;;;;;6.67;6.67;;;;;;;;5098585;27;45484;-82
2022/08/12 15:56:56;;;;;;;;;8.33;8.33;;;;;;;;5098769;27;45337;-85
2022/08/12 15:59:21;;;;;;;;;13.00;9.00;;;;;;;;5098960;27;45428;-87
2022/08/12 16:01:46;;;;;;;;;6.67;6.67;;;;;;;;5098693;27;46452;-79
2022/08/12 16:04:12;;;;;;;;;9.00;9.00;;;;;;;;5098348;27;45373;-84